Time;durP1;ratioP1;P1;durP2;ratioP2;P2;SDS_P1;SDS_P2;PMS_P1;PMS_P2;Temp;Humidity;BMP_temperature;BMP_pressure;BME280_temperature;BME280_humidity;BME280_pressure;Samples;Min_cycle;Max_cycle;Signal;HPM_P1;HPM_P2
2022/07/11 00:00:49;;;;;;;3.33;0.90;;;;;;;;;;4999932;28;20467;-66
2022/07/11 00:03:16;;;;;;;5.53;1.05;;;;;;;;;;5005032;28;20495;-65
2022/07/11 00:05:43;;;;;;;2.80;0.90;;;;;;;;;;4998293;28;20092;-66
2022/07/11 00:08:09;;;;;;;5.18;0.90;;;;;;;;;;5000608;28;20112;-66
2022/07/11 00:10:37;;;;;;;2.38;0.70;;;;;;;;;;4999031;28;20046;-66
2022/07/11 00:13:03;;;;;;;3.42;1.25;;;;;;;;;;4998010;28;20072;-66
2022/07/11 00:15:30;;;;;;;3.05;0.80;;;;;;;;;;4998838;28;20515;-65
2022/07/11 00:17:57;;;;;;;2.03;0.63;;;;;;;;;;4997971;28;20589;-68
2022/07/11 00:20:24;;;;;;;2.17;0.60;;;;;;;;;;4998649;28;20046;-68
2022/07/11 00:22:50;;;;;;;2.00;0.68;;;;;;;;;;5007176;28;20069;-68
2022/07/11 00:25:17;;;;;;;2.60;0.70;;;;;;;;;;4997350;28;20156;-67
2022/07/11 00:27:44;;;;;;;3.83;1.00;;;;;;;;;;4994579;28;20048;-67
2022/07/11 00:30:11;;;;;;;2.63;0.63;;;;;;;;;;4996933;28;20075;-67
2022/07/11 00:32:38;;;;;;;2.63;0.63;;;;;;;;;;4997257;28;20076;-67
2022/07/11 00:35:05;;;;;;;2.38;0.80;;;;;;;;;;4997754;28;20064;-64
2022/07/11 00:37:31;;;;;;;2.33;0.60;;;;;;;;;;4997427;28;20057;-64
2022/07/11 00:39:59;;;;;;;2.17;0.80;;;;;;;;;;4997538;28;20045;-65
2022/07/11 00:42:26;;;;;;;3.47;0.70;;;;;;;;;;4997292;28;20037;-65
2022/07/11 00:44:53;;;;;;;3.38;0.80;;;;;;;;;;4997897;28;20097;-65
2022/07/11 00:47:20;;;;;;;2.80;0.68;;;;;;;;;;4998477;28;20038;-65
2022/07/11 00:49:46;;;;;;;2.90;0.88;;;;;;;;;;4997394;28;20046;-65
2022/07/11 00:52:13;;;;;;;1.92;0.60;;;;;;;;;;4997725;28;20076;-66
2022/07/11 00:54:44;;;;;;;2.25;0.77;;;;;;;;;;4997353;28;20057;-65
2022/07/11 00:57:11;;;;;;;4.03;0.93;;;;;;;;;;5006843;28;20605;-65
2022/07/11 00:59:37;;;;;;;3.67;0.65;;;;;;;;;;4999221;28;20101;-65
2022/07/11 01:02:05;;;;;;;4.65;0.80;;;;;;;;;;5000569;28;20045;-66
2022/07/11 01:04:32;;;;;;;2.97;0.80;;;;;;;;;;4996116;28;20042;-65
2022/07/11 01:06:58;;;;;;;3.05;0.70;;;;;;;;;;4996641;28;20038;-64
2022/07/11 01:09:25;;;;;;;5.07;0.80;;;;;;;;;;4996491;28;20041;-63
2022/07/11 01:11:52;;;;;;;3.63;0.80;;;;;;;;;;5012735;28;20580;-65
2022/07/11 01:14:19;;;;;;;4.20;0.73;;;;;;;;;;4998261;28;20041;-65
2022/07/11 01:16:45;;;;;;;5.45;0.90;;;;;;;;;;4997953;28;20085;-65
2022/07/11 01:19:12;;;;;;;2.28;0.75;;;;;;;;;;4996695;28;20267;-65
2022/07/11 01:21:40;;;;;;;5.05;0.90;;;;;;;;;;4998151;28;20046;-64
2022/07/11 01:24:07;;;;;;;5.40;1.15;;;;;;;;;;5000090;28;20052;-65
2022/07/11 01:26:34;;;;;;;3.47;0.80;;;;;;;;;;4999387;28;20037;-65
2022/07/11 01:29:11;;;;;;;3.67;1.58;;;;;;;;;;5000947;28;20038;-64
2022/07/11 01:31:44;;;;;;;7.10;1.13;;;;;;;;;;5000226;28;20037;-64
2022/07/11 01:34:11;;;;;;;4.82;1.00;;;;;;;;;;4999796;28;20069;-65
2022/07/11 01:36:39;;;;;;;2.25;0.88;;;;;;;;;;4992296;28;20062;-64
2022/07/11 01:39:05;;;;;;;3.53;0.85;;;;;;;;;;5001871;28;20141;-64
2022/07/11 01:41:32;;;;;;;3.63;0.68;;;;;;;;;;5000057;28;20041;-64
2022/07/11 01:43:59;;;;;;;3.80;0.77;;;;;;;;;;4998791;28;20041;-65
2022/07/11 01:46:25;;;;;;;6.32;0.80;;;;;;;;;;4999620;28;20042;-65
2022/07/11 01:48:52;;;;;;;5.78;0.82;;;;;;;;;;5013704;28;20079;-64
2022/07/11 01:51:19;;;;;;;1.88;0.60;;;;;;;;;;4998145;28;20034;-64
2022/07/11 01:53:46;;;;;;;2.28;0.70;;;;;;;;;;4995666;28;20161;-64
2022/07/11 01:56:12;;;;;;;2.75;0.70;;;;;;;;;;4998755;28;20048;-64
2022/07/11 01:58:39;;;;;;;2.80;0.63;;;;;;;;;;5000499;28;20042;-64
2022/07/11 02:01:06;;;;;;;1.58;0.50;;;;;;;;;;5000627;28;21900;-64
2022/07/11 02:03:32;;;;;;;2.05;0.70;;;;;;;;;;4998460;28;20038;-64
2022/07/11 02:05:59;;;;;;;2.65;0.70;;;;;;;;;;5001190;28;20038;-64
2022/07/11 02:08:26;;;;;;;2.05;0.60;;;;;;;;;;5001115;28;20955;-64
2022/07/11 02:10:53;;;;;;;4.72;0.80;;;;;;;;;;5001049;28;20403;-64
2022/07/11 02:13:21;;;;;;;3.97;0.80;;;;;;;;;;4999947;28;20129;-64
2022/07/11 02:15:50;;;;;;;1.75;0.60;;;;;;;;;;5002366;28;20050;-64
2022/07/11 02:18:17;;;;;;;2.38;0.80;;;;;;;;;;5002876;28;20121;-65
2022/07/11 02:20:50;;;;;;;5.15;0.88;;;;;;;;;;5001730;28;20038;-63
2022/07/11 02:23:17;;;;;;;2.25;0.60;;;;;;;;;;4993760;28;20045;-65
2022/07/11 02:25:44;;;;;;;1.98;0.65;;;;;;;;;;5003591;28;20125;-64
2022/07/11 02:28:11;;;;;;;2.80;0.70;;;;;;;;;;5003730;28;20046;-65
2022/07/11 02:30:39;;;;;;;5.38;0.90;;;;;;;;;;5000536;28;20041;-65
2022/07/11 02:33:07;;;;;;;2.50;0.70;;;;;;;;;;5015751;28;20038;-65
2022/07/11 02:35:34;;;;;;;2.67;0.80;;;;;;;;;;4998835;28;20125;-65
2022/07/11 02:38:01;;;;;;;2.35;0.77;;;;;;;;;;5000840;28;20108;-65
2022/07/11 02:40:28;;;;;;;2.30;0.60;;;;;;;;;;5000884;28;20049;-65
2022/07/11 02:42:55;;;;;;;2.25;0.60;;;;;;;;;;5000948;28;20375;-65
2022/07/11 02:45:22;;;;;;;2.80;0.70;;;;;;;;;;5001794;28;20129;-65
2022/07/11 02:47:49;;;;;;;2.72;0.63;;;;;;;;;;5015600;28;20063;-64
2022/07/11 02:50:16;;;;;;;2.30;0.70;;;;;;;;;;5000659;28;20148;-65
2022/07/11 02:52:43;;;;;;;6.72;0.88;;;;;;;;;;4997660;28;20169;-65
2022/07/11 02:55:11;;;;;;;2.65;0.73;;;;;;;;;;4990566;28;20058;-64
2022/07/11 02:57:41;;;;;;;2.78;0.68;;;;;;;;;;4998622;28;20042;-65
2022/07/11 03:00:12;;;;;;;2.60;0.73;;;;;;;;;;5000753;28;20046;-65
2022/07/11 03:02:39;;;;;;;2.83;0.70;;;;;;;;;;4999061;28;20125;-65
2022/07/11 03:05:05;;;;;;;1.92;0.60;;;;;;;;;;4999263;28;20518;-65
2022/07/11 03:07:32;;;;;;;2.75;0.88;;;;;;;;;;4998428;28;20165;-65
2022/07/11 03:09:59;;;;;;;2.88;0.80;;;;;;;;;;4990523;28;20053;-65
2022/07/11 03:12:25;;;;;;;2.70;0.90;;;;;;;;;;5007256;28;20116;-66
2022/07/11 03:14:52;;;;;;;4.30;1.00;;;;;;;;;;4998779;28;20057;-64
2022/07/11 03:17:19;;;;;;;2.70;0.70;;;;;;;;;;5000443;28;20042;-64
2022/07/11 03:19:49;;;;;;;2.72;0.70;;;;;;;;;;4997130;28;20734;-65
2022/07/11 03:22:16;;;;;;;4.22;0.75;;;;;;;;;;5000010;28;20034;-65
2022/07/11 03:24:43;;;;;;;4.40;0.80;;;;;;;;;;4997546;28;20038;-67
2022/07/11 03:27:10;;;;;;;2.33;0.70;;;;;;;;;;4999727;28;20528;-67
2022/07/11 03:29:37;;;;;;;2.88;0.80;;;;;;;;;;5000306;28;20105;-66
2022/07/11 03:32:04;;;;;;;2.28;0.70;;;;;;;;;;5000170;28;20073;-66
2022/07/11 03:34:31;;;;;;;3.45;0.82;;;;;;;;;;4999701;28;20054;-66
2022/07/11 03:36:57;;;;;;;4.13;0.70;;;;;;;;;;4999598;28;20042;-66
2022/07/11 03:39:24;;;;;;;4.80;0.70;;;;;;;;;;4998945;28;20050;-65
2022/07/11 03:41:50;;;;;;;4.45;0.70;;;;;;;;;;4999284;28;20034;-66
2022/07/11 03:44:17;;;;;;;4.40;0.80;;;;;;;;;;4999211;28;20313;-66
2022/07/11 03:46:44;;;;;;;4.72;0.80;;;;;;;;;;4998261;28;20058;-67
2022/07/11 03:49:10;;;;;;;3.13;1.00;;;;;;;;;;5000184;28;20499;-66
2022/07/11 03:51:37;;;;;;;2.83;0.90;;;;;;;;;;4998681;28;20453;-66
2022/07/11 03:54:04;;;;;;;4.50;0.70;;;;;;;;;;4997581;28;20054;-66
2022/07/11 03:56:31;;;;;;;3.78;0.70;;;;;;;;;;4996537;28;20504;-66
2022/07/11 03:58:58;;;;;;;2.72;0.82;;;;;;;;;;5000214;28;20394;-66
2022/07/11 04:01:24;;;;;;;2.35;0.77;;;;;;;;;;5006108;28;20041;-66
2022/07/11 04:03:51;;;;;;;3.03;0.70;;;;;;;;;;4996714;28;20046;-66
2022/07/11 04:06:17;;;;;;;2.65;0.90;;;;;;;;;;4998427;28;20050;-66
2022/07/11 04:08:44;;;;;;;3.78;1.10;;;;;;;;;;5006904;28;20719;-66
2022/07/11 04:11:11;;;;;;;2.35;0.70;;;;;;;;;;4999441;28;20387;-66
2022/07/11 04:13:37;;;;;;;2.50;0.80;;;;;;;;;;4997171;28;20049;-66
2022/07/11 04:16:04;;;;;;;7.07;1.10;;;;;;;;;;4999079;28;20038;-65
2022/07/11 04:18:31;;;;;;;3.25;0.80;;;;;;;;;;4998885;28;20034;-65
2022/07/11 04:20:58;;;;;;;1.95;0.70;;;;;;;;;;4997281;28;20049;-66
2022/07/11 04:23:24;;;;;;;2.40;0.77;;;;;;;;;;4998226;28;20106;-66
2022/07/11 04:25:51;;;;;;;3.65;0.82;;;;;;;;;;4997620;28;20077;-67
2022/07/11 04:28:20;;;;;;;2.17;0.85;;;;;;;;;;5000711;28;20129;-66
2022/07/11 04:30:47;;;;;;;3.17;0.70;;;;;;;;;;5000307;28;20491;-66
2022/07/11 04:33:13;;;;;;;2.30;0.70;;;;;;;;;;5008865;28;20038;-66
2022/07/11 04:35:40;;;;;;;2.10;0.70;;;;;;;;;;4998457;28;20135;-66
2022/07/11 04:38:07;;;;;;;2.10;0.75;;;;;;;;;;4999909;28;20042;-66
2022/07/11 04:40:33;;;;;;;4.47;1.02;;;;;;;;;;4997652;28;20034;-66
2022/07/11 04:43:00;;;;;;;2.65;0.80;;;;;;;;;;4998961;28;20034;-66
2022/07/11 04:45:27;;;;;;;2.08;0.70;;;;;;;;;;4997591;28;20114;-66
2022/07/11 04:47:53;;;;;;;4.05;0.80;;;;;;;;;;4998925;28;20042;-66
2022/07/11 04:50:20;;;;;;;2.85;0.80;;;;;;;;;;4999974;28;20064;-65
2022/07/11 04:52:47;;;;;;;3.95;1.15;;;;;;;;;;4999252;28;20045;-68
2022/07/11 04:55:14;;;;;;;2.92;1.00;;;;;;;;;;5000200;28;20056;-66
2022/07/11 04:57:41;;;;;;;4.75;1.90;;;;;;;;;;5000038;28;20690;-66
2022/07/11 05:00:08;;;;;;;4.13;1.65;;;;;;;;;;5000240;28;20130;-66
2022/07/11 05:02:34;;;;;;;3.95;1.52;;;;;;;;;;4998869;28;20050;-66
2022/07/11 05:05:01;;;;;;;3.67;1.40;;;;;;;;;;4999834;28;20038;-67
2022/07/11 05:07:28;;;;;;;2.50;1.00;;;;;;;;;;4999983;28;20037;-66
2022/07/11 05:09:54;;;;;;;2.97;1.20;;;;;;;;;;5000495;28;20034;-65
2022/07/11 05:12:21;;;;;;;3.10;1.08;;;;;;;;;;5000058;28;20042;-66
2022/07/11 05:14:48;;;;;;;3.30;1.00;;;;;;;;;;5000219;28;20074;-66
2022/07/11 05:17:15;;;;;;;2.83;0.85;;;;;;;;;;4999915;28;20065;-67
2022/07/11 05:19:41;;;;;;;3.90;0.90;;;;;;;;;;4999830;28;22906;-67
2022/07/11 05:22:08;;;;;;;2.88;1.00;;;;;;;;;;5001202;28;21696;-64
2022/07/11 05:24:35;;;;;;;2.50;0.80;;;;;;;;;;5000182;28;20058;-65
2022/07/11 05:27:02;;;;;;;2.75;0.80;;;;;;;;;;5001393;28;20038;-65
2022/07/11 05:29:29;;;;;;;2.70;0.82;;;;;;;;;;5000934;28;20033;-66
2022/07/11 05:31:55;;;;;;;3.10;1.10;;;;;;;;;;5002934;28;20518;-65
2022/07/11 05:34:22;;;;;;;2.30;0.70;;;;;;;;;;5001824;28;20046;-66
2022/07/11 05:36:49;;;;;;;3.58;0.80;;;;;;;;;;4997848;28;20045;-67
2022/07/11 05:39:16;;;;;;;4.43;0.80;;;;;;;;;;5013949;28;20145;-67
2022/07/11 05:41:42;;;;;;;4.60;0.95;;;;;;;;;;5001951;28;20072;-67
2022/07/11 05:44:14;;;;;;;5.15;0.77;;;;;;;;;;5003049;28;20041;-67
2022/07/11 05:46:42;;;;;;;3.22;0.88;;;;;;;;;;5001334;28;20761;-67
2022/07/11 05:49:08;;;;;;;2.63;0.82;;;;;;;;;;5001025;28;20065;-67
2022/07/11 05:51:36;;;;;;;3.03;0.80;;;;;;;;;;4999444;28;20057;-67
2022/07/11 05:54:03;;;;;;;3.35;1.00;;;;;;;;;;5000200;28;20050;-67
2022/07/11 05:56:30;;;;;;;3.22;0.95;;;;;;;;;;5001532;28;20033;-66
2022/07/11 05:58:58;;;;;;;2.47;0.80;;;;;;;;;;5001854;28;20042;-66
2022/07/11 06:01:26;;;;;;;2.47;0.85;;;;;;;;;;5001654;28;20517;-67
2022/07/11 06:03:53;;;;;;;2.85;0.77;;;;;;;;;;5001701;28;20065;-67
2022/07/11 06:06:19;;;;;;;2.40;0.85;;;;;;;;;;5004599;28;20046;-67
2022/07/11 06:08:46;;;;;;;2.50;0.65;;;;;;;;;;5004169;28;20048;-67
2022/07/11 06:11:16;;;;;;;3.25;0.95;;;;;;;;;;5004644;28;20053;-66
2022/07/11 06:13:44;;;;;;;2.80;0.90;;;;;;;;;;4999791;28;20565;-66
2022/07/11 06:16:11;;;;;;;3.33;0.90;;;;;;;;;;5000848;28;20038;-67
2022/07/11 06:18:39;;;;;;;4.82;0.77;;;;;;;;;;4999195;28;20100;-66
2022/07/11 06:21:06;;;;;;;2.47;0.73;;;;;;;;;;5000074;28;20096;-67
2022/07/11 06:23:36;;;;;;;2.30;0.75;;;;;;;;;;4991303;28;20046;-66
2022/07/11 06:26:03;;;;;;;4.85;0.90;;;;;;;;;;5000094;28;20180;-66
2022/07/11 06:28:30;;;;;;;3.03;0.88;;;;;;;;;;5000321;28;20038;-66
2022/07/11 06:30:57;;;;;;;2.58;0.77;;;;;;;;;;5000084;28;20046;-67
2022/07/11 06:33:23;;;;;;;5.05;1.00;;;;;;;;;;4998653;28;20104;-66
2022/07/11 06:35:50;;;;;;;3.03;0.85;;;;;;;;;;4999374;28;20075;-66
2022/07/11 06:38:17;;;;;;;2.60;0.82;;;;;;;;;;5000625;28;20038;-66
2022/07/11 06:40:45;;;;;;;2.50;0.70;;;;;;;;;;4999042;28;20038;-66
2022/07/11 06:43:12;;;;;;;2.92;0.80;;;;;;;;;;4998575;28;20665;-66
2022/07/11 06:45:39;;;;;;;2.50;0.80;;;;;;;;;;4999071;28;20030;-65
2022/07/11 06:48:06;;;;;;;6.00;1.00;;;;;;;;;;4999637;28;20038;-66
2022/07/11 06:50:33;;;;;;;2.70;0.90;;;;;;;;;;4999432;28;20103;-66
2022/07/11 06:52:59;;;;;;;6.75;1.10;;;;;;;;;;4998639;28;20177;-66
2022/07/11 06:55:26;;;;;;;3.25;0.90;;;;;;;;;;5008402;28;20046;-66
2022/07/11 06:57:53;;;;;;;2.80;0.90;;;;;;;;;;5001301;28;20510;-66
2022/07/11 07:00:19;;;;;;;3.40;1.08;;;;;;;;;;5009952;28;20108;-66
2022/07/11 07:02:46;;;;;;;2.67;0.90;;;;;;;;;;4999360;28;20525;-66
2022/07/11 07:05:13;;;;;;;2.70;0.80;;;;;;;;;;4999990;28;21805;-66
2022/07/11 07:07:41;;;;;;;2.75;0.85;;;;;;;;;;5000035;28;20073;-66
2022/07/11 07:10:07;;;;;;;2.38;0.90;;;;;;;;;;5000756;28;20573;-67
2022/07/11 07:12:38;;;;;;;2.45;0.75;;;;;;;;;;5001079;28;20038;-66
2022/07/11 07:15:05;;;;;;;3.25;0.80;;;;;;;;;;5000321;28;20559;-66
2022/07/11 07:17:32;;;;;;;2.70;0.85;;;;;;;;;;4999868;28;20034;-66
2022/07/11 07:19:59;;;;;;;2.80;0.80;;;;;;;;;;5000049;28;20045;-65
2022/07/11 07:22:25;;;;;;;2.60;0.80;;;;;;;;;;4998867;28;20349;-66
2022/07/11 07:24:52;;;;;;;2.65;0.73;;;;;;;;;;4998527;28;20045;-66
2022/07/11 07:27:19;;;;;;;2.05;0.70;;;;;;;;;;4998529;28;20042;-66
2022/07/11 07:29:47;;;;;;;2.78;0.90;;;;;;;;;;4998749;28;20193;-66
2022/07/11 07:32:14;;;;;;;3.13;0.95;;;;;;;;;;4997571;28;20042;-66
2022/07/11 07:34:40;;;;;;;3.50;0.85;;;;;;;;;;4997599;28;20042;-66
2022/07/11 07:37:07;;;;;;;2.15;0.73;;;;;;;;;;4999080;28;20030;-67
2022/07/11 07:39:34;;;;;;;2.45;0.80;;;;;;;;;;4998621;28;20046;-67
2022/07/11 07:42:00;;;;;;;2.33;0.80;;;;;;;;;;4997875;28;20515;-67
2022/07/11 07:44:27;;;;;;;3.85;0.90;;;;;;;;;;4997619;28;20046;-67
2022/07/11 07:46:53;;;;;;;2.92;0.93;;;;;;;;;;5000024;28;20045;-67
2022/07/11 07:49:20;;;;;;;3.95;1.00;;;;;;;;;;4998351;28;20045;-67
2022/07/11 07:51:47;;;;;;;2.78;1.00;;;;;;;;;;4996954;28;20041;-67
2022/07/11 07:54:13;;;;;;;2.38;0.80;;;;;;;;;;4997315;28;20530;-68
2022/07/11 07:56:40;;;;;;;2.42;0.80;;;;;;;;;;4999159;28;20045;-67
2022/07/11 07:59:07;;;;;;;3.08;0.90;;;;;;;;;;4998998;28;20042;-67
2022/07/11 08:01:36;;;;;;;2.65;0.80;;;;;;;;;;4998662;28;20042;-67
2022/07/11 08:04:04;;;;;;;2.63;0.77;;;;;;;;;;5000212;28;20157;-67
2022/07/11 08:06:30;;;;;;;3.00;0.85;;;;;;;;;;5001238;28;20616;-67
2022/07/11 08:08:57;;;;;;;3.00;0.90;;;;;;;;;;5001781;28;20046;-67
2022/07/11 08:11:24;;;;;;;2.85;0.95;;;;;;;;;;5001156;28;20046;-67
2022/07/11 08:13:50;;;;;;;2.47;1.00;;;;;;;;;;5001109;28;20042;-67
2022/07/11 08:16:17;;;;;;;2.70;1.00;;;;;;;;;;5000033;28;20873;-67
2022/07/11 08:18:44;;;;;;;2.60;0.90;;;;;;;;;;4999250;28;20414;-67
2022/07/11 08:21:10;;;;;;;2.83;1.00;;;;;;;;;;4999514;28;20042;-67
2022/07/11 08:23:37;;;;;;;2.58;0.90;;;;;;;;;;4997612;28;20030;-67
2022/07/11 08:26:04;;;;;;;2.70;0.80;;;;;;;;;;5000335;28;20107;-66
2022/07/11 08:28:31;;;;;;;5.47;1.25;;;;;;;;;;4998940;28;20600;-67
2022/07/11 08:30:57;;;;;;;4.47;0.90;;;;;;;;;;4998607;28;20135;-66
2022/07/11 08:33:24;;;;;;;2.50;0.82;;;;;;;;;;4988759;28;20038;-67
2022/07/11 08:35:51;;;;;;;2.80;0.90;;;;;;;;;;4998905;28;20053;-66
2022/07/11 08:38:19;;;;;;;2.90;1.00;;;;;;;;;;4999625;28;20038;-67
2022/07/11 08:40:46;;;;;;;2.70;0.93;;;;;;;;;;4998805;28;20034;-67
2022/07/11 08:43:17;;;;;;;2.05;0.70;;;;;;;;;;4999421;28;20550;-67
2022/07/11 08:45:44;;;;;;;2.33;0.80;;;;;;;;;;5000182;28;20124;-66
2022/07/11 08:48:11;;;;;;;2.38;0.90;;;;;;;;;;5008574;28;20135;-66
2022/07/11 08:50:38;;;;;;;2.40;1.00;;;;;;;;;;4998917;28;20158;-66
2022/07/11 08:53:05;;;;;;;3.20;1.00;;;;;;;;;;4997588;28;20052;-66
2022/07/11 08:55:32;;;;;;;2.60;0.90;;;;;;;;;;4995723;28;20119;-62
2022/07/11 08:57:59;;;;;;;2.45;0.90;;;;;;;;;;4995955;28;20045;-63
2022/07/11 09:00:26;;;;;;;3.00;0.90;;;;;;;;;;4996094;28;20066;-62
2022/07/11 09:02:53;;;;;;;2.53;0.82;;;;;;;;;;4994356;28;20073;-62
2022/07/11 09:05:20;;;;;;;2.78;0.85;;;;;;;;;;4996000;28;20377;-61
2022/07/11 09:07:47;;;;;;;2.40;0.80;;;;;;;;;;4996345;28;21150;-61
2022/07/11 09:10:14;;;;;;;3.17;0.90;;;;;;;;;;4996084;28;20041;-61
2022/07/11 09:13:01;;;;;;;2.75;1.02;;;;;;;;;;4995531;28;20046;-61
2022/07/11 09:15:44;;;;;;;2.55;0.90;;;;;;;;;;4996500;28;20050;-61
2022/07/11 09:18:29;;;;;;;2.70;1.00;;;;;;;;;;4998212;28;20042;-61
2022/07/11 09:26:34;;;;;;;2.60;0.90;;;;;;;;;;4996833;28;20081;-61
2022/07/11 09:29:01;;;;;;;3.45;0.93;;;;;;;;;;4997447;28;20049;-63
2022/07/11 09:31:29;;;;;;;2.72;0.90;;;;;;;;;;4996350;28;20038;-62
2022/07/11 09:34:08;;;;;;;3.08;1.00;;;;;;;;;;4996107;28;20487;-62
2022/07/11 09:36:37;;;;;;;3.08;0.90;;;;;;;;;;4995707;28;20402;-61
2022/07/11 09:39:04;;;;;;;2.53;0.93;;;;;;;;;;4997041;28;20080;-61
2022/07/11 09:41:35;;;;;;;3.70;0.98;;;;;;;;;;4996745;28;20046;-62
2022/07/11 09:44:22;;;;;;;2.28;0.90;;;;;;;;;;4996730;28;20037;-61
2022/07/11 09:46:52;;;;;;;2.47;0.90;;;;;;;;;;4995839;28;20037;-61
2022/07/11 09:49:30;;;;;;;2.75;0.85;;;;;;;;;;4997137;28;20038;-61
2022/07/11 09:52:06;;;;;;;5.32;1.05;;;;;;;;;;4993876;28;20107;-60
2022/07/11 09:54:33;;;;;;;3.03;0.88;;;;;;;;;;4995898;28;20659;-60
2022/07/11 09:57:00;;;;;;;3.58;1.10;;;;;;;;;;4996726;28;20129;-61
2022/07/11 09:59:26;;;;;;;3.20;0.93;;;;;;;;;;4996639;28;20034;-61
2022/07/11 10:01:53;;;;;;;3.03;1.10;;;;;;;;;;4996109;28;20065;-61
2022/07/11 10:04:20;;;;;;;2.67;1.00;;;;;;;;;;4996423;28;20055;-60
2022/07/11 10:06:47;;;;;;;2.50;0.90;;;;;;;;;;4996118;28;20042;-60
2022/07/11 10:09:13;;;;;;;3.13;1.00;;;;;;;;;;4997148;28;20038;-60
2022/07/11 10:11:40;;;;;;;3.08;1.10;;;;;;;;;;4997217;28;20094;-60
2022/07/11 10:14:07;;;;;;;2.60;0.93;;;;;;;;;;4996616;28;20085;-60
2022/07/11 10:16:40;;;;;;;2.25;0.70;;;;;;;;;;4996301;28;20038;-60
2022/07/11 10:19:17;;;;;;;4.00;1.02;;;;;;;;;;4999108;28;20050;-60
2022/07/11 10:21:53;;;;;;;3.45;1.13;;;;;;;;;;4999107;28;20108;-61
2022/07/11 10:24:28;;;;;;;3.58;1.20;;;;;;;;;;5000575;28;20057;-61
2022/07/11 10:27:00;;;;;;;3.63;1.13;;;;;;;;;;4998711;28;20092;-61
2022/07/11 10:29:50;;;;;;;3.05;1.00;;;;;;;;;;4998770;28;20088;-61
2022/07/11 10:32:17;;;;;;;3.08;1.10;;;;;;;;;;4997181;28;20037;-62
2022/07/11 10:34:46;;;;;;;2.85;1.00;;;;;;;;;;4999661;28;20050;-61
2022/07/11 10:37:12;;;;;;;2.90;0.98;;;;;;;;;;5000571;28;20049;-61
2022/07/11 10:39:46;;;;;;;2.80;1.00;;;;;;;;;;4999569;28;20042;-62
2022/07/11 10:42:12;;;;;;;;;;;;;;;;;;5001353;28;20402;-62
2022/07/11 10:44:49;;;;;;;3.97;1.10;;;;;;;;;;5000295;28;21724;-61
2022/07/11 10:47:35;;;;;;;3.33;1.13;;;;;;;;;;4999559;28;20087;-62
2022/07/11 10:50:22;;;;;;;2.83;1.10;;;;;;;;;;5001281;28;20038;-62
2022/07/11 10:52:50;;;;;;;3.35;0.90;;;;;;;;;;5000709;28;20088;-62
2022/07/11 10:55:23;;;;;;;3.00;1.05;;;;;;;;;;4999618;28;20050;-62
2022/07/11 10:58:25;;;;;;;4.50;1.02;;;;;;;;;;5001390;28;20042;-62
2022/07/11 11:01:10;;;;;;;4.60;1.40;;;;;;;;;;4968207;28;20054;-62
2022/07/11 11:03:37;;;;;;;4.95;1.20;;;;;;;;;;4999000;28;20046;-62
2022/07/11 11:06:04;;;;;;;3.50;1.13;;;;;;;;;;4999927;28;20038;-62
2022/07/11 11:08:38;;;;;;;6.18;1.00;;;;;;;;;;4998388;28;20100;-61
2022/07/11 11:11:25;;;;;;;3.38;1.15;;;;;;;;;;5002076;28;20034;-61
2022/07/11 11:14:12;;;;;;;2.70;1.20;;;;;;;;;;4999772;28;20042;-62
2022/07/11 11:16:39;;;;;;;10.52;1.63;;;;;;;;;;4998670;28;20041;-61
2022/07/11 11:19:05;;;;;;;3.97;1.10;;;;;;;;;;5000934;28;20061;-62
2022/07/11 11:21:32;;;;;;;8.07;1.42;;;;;;;;;;4995240;28;20081;-61
2022/07/11 11:24:00;;;;;;;3.55;1.20;;;;;;;;;;4999381;28;20037;-62
2022/07/11 11:26:43;;;;;;;4.10;1.20;;;;;;;;;;5001300;28;20506;-60
2022/07/11 11:29:09;;;;;;;5.10;1.02;;;;;;;;;;4999564;28;20046;-61
2022/07/11 11:31:36;;;;;;;2.95;1.20;;;;;;;;;;5000769;28;20172;-62
2022/07/11 11:34:04;;;;;;;4.97;1.30;;;;;;;;;;5001837;28;20037;-62
2022/07/11 11:36:31;;;;;;;4.10;1.30;;;;;;;;;;4999300;28;20038;-62
2022/07/11 11:38:58;;;;;;;5.53;1.50;;;;;;;;;;5000065;28;20088;-60
2022/07/11 11:41:29;;;;;;;5.10;1.60;;;;;;;;;;4999277;28;20064;-61
2022/07/11 11:43:56;;;;;;;5.15;1.30;;;;;;;;;;4998939;28;20098;-62
2022/07/11 11:46:27;;;;;;;3.67;1.17;;;;;;;;;;5000465;28;20056;-61
2022/07/11 11:48:57;;;;;;;3.90;1.20;;;;;;;;;;4999167;28;20152;-61
2022/07/11 11:51:25;;;;;;;3.90;1.27;;;;;;;;;;4997080;28;21797;-61
2022/07/11 11:53:53;;;;;;;3.60;1.20;;;;;;;;;;4999103;28;20153;-62
2022/07/11 11:56:36;;;;;;;3.60;1.08;;;;;;;;;;4999268;28;20384;-61
2022/07/11 11:59:12;;;;;;;2.80;1.00;;;;;;;;;;4997973;28;20046;-61
2022/07/11 12:01:42;;;;;;;2.97;1.00;;;;;;;;;;4998326;28;20129;-62
2022/07/11 12:04:12;;;;;;;3.13;1.15;;;;;;;;;;5014338;28;20045;-61
2022/07/11 12:06:46;;;;;;;6.10;1.13;;;;;;;;;;4997510;28;20042;-60
2022/07/11 12:09:15;;;;;;;5.22;1.25;;;;;;;;;;5000037;28;20483;-61
2022/07/11 12:12:43;;;;;;;3.13;1.05;;;;;;;;;;4997196;28;20044;-62
2022/07/11 12:14:39;;;;;;;4.18;1.10;;;;;;;;;;4996951;28;20426;-62
2022/07/11 12:17:05;;;;;;;4.38;1.40;;;;;;;;;;4998441;28;20034;-62
2022/07/11 12:19:35;;;;;;;3.72;1.20;;;;;;;;;;4995994;28;20518;-61
2022/07/11 12:22:04;;;;;;;5.60;1.55;;;;;;;;;;4989178;28;20104;-61
2022/07/11 12:24:31;;;;;;;5.55;1.55;;;;;;;;;;4997452;28;20042;-58
2022/07/11 12:26:58;;;;;;;4.05;1.35;;;;;;;;;;4997661;28;20656;-60
2022/07/11 12:29:27;;;;;;;5.00;1.40;;;;;;;;;;4996327;28;20038;-59
2022/07/11 12:32:01;;;;;;;3.50;1.20;;;;;;;;;;4997608;28;20072;-60
2022/07/11 12:34:33;;;;;;;3.75;1.30;;;;;;;;;;4996730;28;20049;-60
2022/07/11 12:37:07;;;;;;;3.75;1.33;;;;;;;;;;4995862;28;20857;-60
2022/07/11 12:39:36;;;;;;;5.50;1.45;;;;;;;;;;4994156;28;20597;-60
2022/07/11 12:42:21;;;;;;;3.30;1.23;;;;;;;;;;4995642;28;20073;-59
2022/07/11 12:44:59;;;;;;;3.72;1.15;;;;;;;;;;4996808;28;20046;-59
2022/07/11 12:47:26;;;;;;;3.88;1.50;;;;;;;;;;4997333;28;20034;-58
2022/07/11 12:49:53;;;;;;;5.93;1.20;;;;;;;;;;4997201;28;20140;-55
2022/07/11 12:52:20;;;;;;;3.60;1.20;;;;;;;;;;4996569;28;20037;-65
2022/07/11 12:54:49;;;;;;;4.07;1.48;;;;;;;;;;4998001;28;20100;-60
2022/07/11 12:57:17;;;;;;;4.25;1.20;;;;;;;;;;4996454;28;20050;-61
2022/07/11 12:59:44;;;;;;;3.40;1.10;;;;;;;;;;4994861;28;20099;-61
2022/07/11 13:02:12;;;;;;;6.05;1.20;;;;;;;;;;4996658;28;20029;-61
2022/07/11 13:04:39;;;;;;;3.78;1.30;;;;;;;;;;4997928;28;20034;-62
2022/07/11 13:10:07;;;;;;;5.05;1.38;;;;;;;;;;4996832;28;20049;-60
2022/07/11 13:12:33;;;;;;;4.38;1.50;;;;;;;;;;4996752;28;20776;-59
2022/07/11 13:15:11;;;;;;;4.07;1.20;;;;;;;;;;4997250;28;20054;-62
2022/07/11 13:17:38;;;;;;;5.00;1.27;;;;;;;;;;4996455;28;20038;-60
2022/07/11 13:20:06;;;;;;;3.53;1.30;;;;;;;;;;4997211;28;20058;-61
2022/07/11 13:22:33;;;;;;;3.53;1.20;;;;;;;;;;4994605;28;20506;-61
2022/07/11 13:24:59;;;;;;;2.97;1.17;;;;;;;;;;4990863;28;20086;-61
2022/07/11 13:27:26;;;;;;;3.58;1.17;;;;;;;;;;4998210;28;20660;-61
2022/07/11 13:29:52;;;;;;;3.30;1.15;;;;;;;;;;4997882;28;20061;-61
2022/07/11 13:32:19;;;;;;;5.43;2.15;;;;;;;;;;4998369;28;20038;-60
2022/07/11 13:34:48;;;;;;;3.83;1.30;;;;;;;;;;4996428;28;20065;-62
2022/07/11 13:37:18;;;;;;;4.70;1.08;;;;;;;;;;4989269;28;20042;-62
2022/07/11 13:39:45;;;;;;;3.13;1.00;;;;;;;;;;5004281;28;20128;-62
2022/07/11 13:42:12;;;;;;;3.70;1.08;;;;;;;;;;4997230;28;20402;-62
2022/07/11 13:44:38;;;;;;;3.65;1.10;;;;;;;;;;4997046;28;20049;-62
2022/07/11 13:47:05;;;;;;;3.45;1.20;;;;;;;;;;4998824;28;20068;-62
2022/07/11 13:49:32;;;;;;;6.65;1.30;;;;;;;;;;4998529;28;20080;-62
2022/07/11 13:51:58;;;;;;;3.42;1.10;;;;;;;;;;4998319;28;20049;-62
2022/07/11 13:54:25;;;;;;;4.35;1.10;;;;;;;;;;5000740;28;20141;-63
2022/07/11 13:56:52;;;;;;;3.17;1.15;;;;;;;;;;5001095;28;20046;-62
2022/07/11 13:59:20;;;;;;;3.42;1.02;;;;;;;;;;5001139;28;20049;-62
2022/07/11 14:01:47;;;;;;;2.67;0.95;;;;;;;;;;5001981;28;20100;-62
2022/07/11 14:04:14;;;;;;;4.50;1.02;;;;;;;;;;5002147;28;20553;-62
2022/07/11 14:06:41;;;;;;;3.08;1.10;;;;;;;;;;5001163;28;20049;-62
2022/07/11 14:09:08;;;;;;;3.75;1.20;;;;;;;;;;5000677;28;20509;-62
2022/07/11 14:11:34;;;;;;;5.93;1.17;;;;;;;;;;5002039;28;20144;-61
2022/07/11 14:14:01;;;;;;;5.43;1.02;;;;;;;;;;5001994;28;20038;-62
2022/07/11 14:16:28;;;;;;;6.55;1.10;;;;;;;;;;5000160;28;20037;-62
2022/07/11 14:18:55;;;;;;;4.03;1.00;;;;;;;;;;4999677;28;20054;-62
2022/07/11 14:21:21;;;;;;;2.30;0.70;;;;;;;;;;5001483;28;20044;-62
2022/07/11 14:23:48;;;;;;;6.47;1.52;;;;;;;;;;5000225;28;20041;-62
2022/07/11 14:26:15;;;;;;;5.10;1.17;;;;;;;;;;4999939;28;20490;-62
2022/07/11 14:28:41;;;;;;;4.53;1.42;;;;;;;;;;4999678;28;20100;-62
2022/07/11 14:31:08;;;;;;;5.30;1.20;;;;;;;;;;4999281;28;20038;-62
2022/07/11 14:33:35;;;;;;;3.63;1.08;;;;;;;;;;4998936;28;21747;-62
2022/07/11 14:36:01;;;;;;;4.30;0.90;;;;;;;;;;5000041;28;20060;-62
2022/07/11 14:38:29;;;;;;;3.83;1.02;;;;;;;;;;4998729;28;20936;-62
2022/07/11 14:40:55;;;;;;;6.82;1.23;;;;;;;;;;5000880;28;20113;-62
2022/07/11 14:43:22;;;;;;;4.72;1.40;;;;;;;;;;4999083;28;20170;-62
2022/07/11 14:45:48;;;;;;;4.85;1.02;;;;;;;;;;4999713;28;20038;-62
2022/07/11 14:48:15;;;;;;;5.53;1.38;;;;;;;;;;4998986;28;20077;-62
2022/07/11 14:50:42;;;;;;;2.67;0.90;;;;;;;;;;4999372;28;20687;-62
2022/07/11 14:53:08;;;;;;;6.00;1.50;;;;;;;;;;4998393;28;20053;-62
2022/07/11 14:55:35;;;;;;;4.60;1.35;;;;;;;;;;4999052;28;20066;-62
2022/07/11 14:58:02;;;;;;;9.57;1.80;;;;;;;;;;4997903;28;20510;-62